Terminal Aerodrome Forecast
Issued by NWS Los Angeles, CA

Home | Current Version | Previous Version | Text Only | Print | Product List | Glossary On
Versions: 1 2 3 4 5 6 7 8 9 10 11 12 13 14 15 16 17 18 19 20 21 22 23 24 25 26 27 28 29 30
000
FTUS46 KLOX 261700
TAFSMX
TAF
KSMX 261726Z 2618/2718 30007KT 5SM HZ SCT250
     FM261900 30010KT P6SM SCT250
     FM270300 VRB03KT 5SM BR OVC005
     FM270700 VRB03KT 3SM BR OVC003
     FM271000 VRB03KT 1/2SM FG VV001
     FM271400 VRB03KT 5SM BR BKN004=

USA.gov is the U.S. government's official web portal to all federal, state and local government web resources and services.